Time;durP1;ratioP1;P1;durP2;ratioP2;P2;SDS_P1;SDS_P2;PMS_P1;PMS_P2;Temp;Humidity;BMP_temperature;BMP_pressure;BME280_temperature;BME280_humidity;BME280_pressure;Samples;Min_cycle;Max_cycle;Signal;HPM_P1;HPM_P2
2023/06/24 00:01:33;;;;;;;8.60;7.47;;;;;;;;;;10274831;28;20093;-82
2023/06/24 00:06:34;;;;;;;9.30;8.23;;;;;;;;;;10280208;28;20057;-84
2023/06/24 00:11:34;;;;;;;9.90;7.70;;;;;;;;;;10276475;28;20055;-83
2023/06/24 00:16:35;;;;;;;9.17;7.43;;;;;;;;;;10272891;28;20054;-81
2023/06/24 00:21:37;;;;;;;8.95;7.72;;;;;;;;;;10271074;28;21367;-84
2023/06/24 00:26:37;;;;;;;8.43;7.25;;;;;;;;;;10281570;28;20129;-84
2023/06/24 00:31:38;;;;;;;8.05;7.22;;;;;;;;;;10284755;28;20058;-83
2023/06/24 00:36:38;;;;;;;9.23;7.50;;;;;;;;;;10269839;28;20066;-82
2023/06/24 00:41:39;;;;;;;10.57;7.97;;;;;;;;;;10276587;28;20574;-83
2023/06/24 00:46:39;;;;;;;9.33;7.20;;;;;;;;;;10266355;28;20053;-85
2023/06/24 00:51:47;;;;;;;8.00;6.75;;;;;;;;;;10299468;28;20380;-84
2023/06/24 00:56:48;;;;;;;8.23;7.35;;;;;;;;;;10298043;28;20157;-85
2023/06/24 01:01:52;;;;;;;7.70;6.85;;;;;;;;;;10275882;28;20085;-83
2023/06/24 01:06:53;;;;;;;9.57;7.40;;;;;;;;;;10282291;28;20050;-83
2023/06/24 01:11:54;;;;;;;8.25;7.25;;;;;;;;;;10280978;28;20813;-83
2023/06/24 01:16:55;;;;;;;8.77;7.30;;;;;;;;;;10282926;28;20078;-83
2023/06/24 01:22:06;;;;;;;10.07;8.90;;;;;;;;;;10282809;28;20055;-81
2023/06/24 01:27:28;;;;;;;10.43;8.20;;;;;;;;;;10280986;28;20053;-82
2023/06/24 01:32:33;;;;;;;9.60;7.90;;;;;;;;;;10248176;28;20071;-85
2023/06/24 01:37:45;;;;;;;8.88;7.53;;;;;;;;;;10284315;28;20061;-83
2023/06/24 01:42:46;;;;;;;9.43;7.97;;;;;;;;;;10271701;28;20042;-81
2023/06/24 01:47:48;;;;;;;9.25;7.65;;;;;;;;;;10286543;28;20491;-84
2023/06/24 01:52:50;;;;;;;8.48;7.53;;;;;;;;;;10264071;28;20077;-85
2023/06/24 01:57:52;;;;;;;10.15;7.88;;;;;;;;;;10286540;28;20046;-85
2023/06/24 02:02:53;;;;;;;10.70;7.85;;;;;;;;;;10280561;28;20055;-85
2023/06/24 02:07:56;;;;;;;9.13;8.07;;;;;;;;;;10276767;28;20038;-82
2023/06/24 02:12:58;;;;;;;9.90;7.75;;;;;;;;;;10258862;28;20499;-80
2023/06/24 02:18:02;;;;;;;10.13;8.30;;;;;;;;;;10277952;28;20046;-84
2023/06/24 02:23:02;;;;;;;;;;;;;;;;;;10297365;28;20104;-81
2023/06/24 02:28:02;;;;;;;8.38;7.47;;;;;;;;;;10306164;28;19922;-85
2023/06/24 02:33:03;;;;;;;8.30;7.47;;;;;;;;;;10298551;28;20051;-84
2023/06/24 02:38:05;;;;;;;9.88;8.27;;;;;;;;;;10281876;28;20078;-85
2023/06/24 02:43:05;;;;;;;8.55;7.60;;;;;;;;;;10286693;28;20051;-85
2023/06/24 02:48:08;;;;;;;8.00;7.17;;;;;;;;;;10290800;28;20042;-83
2023/06/24 02:53:09;;;;;;;9.52;7.70;;;;;;;;;;10268195;28;20050;-82
2023/06/24 02:58:13;;;;;;;9.15;7.22;;;;;;;;;;10275703;28;20784;-81
2023/06/24 03:03:32;;;;;;;9.35;8.05;;;;;;;;;;10302668;28;20063;-80
2023/06/24 03:08:33;;;;;;;11.13;7.15;;;;;;;;;;10265178;28;20058;-83
2023/06/24 03:13:33;;;;;;;10.27;7.40;;;;;;;;;;10282333;28;20430;-84
2023/06/24 03:18:41;;;;;;;8.77;7.53;;;;;;;;;;10254062;28;20946;-84
2023/06/24 03:23:42;;;;;;;9.48;7.78;;;;;;;;;;10265061;28;20054;-84
2023/06/24 03:28:48;;;;;;;9.20;7.80;;;;;;;;;;10263553;28;20047;-84
2023/06/24 03:33:51;;;;;;;8.73;7.82;;;;;;;;;;10268367;28;20418;-83
2023/06/24 03:38:51;;;;;;;9.40;8.02;;;;;;;;;;10328461;28;20043;-83
2023/06/24 03:43:53;;;;;;;9.18;7.85;;;;;;;;;;10306517;28;20141;-84
2023/06/24 03:48:53;;;;;;;7.85;6.97;;;;;;;;;;10289346;28;20051;-85
2023/06/24 03:53:54;;;;;;;9.20;7.45;;;;;;;;;;10270971;28;20088;-83
2023/06/24 03:58:54;;;;;;;9.23;7.80;;;;;;;;;;10281196;28;20046;-82
2023/06/24 04:03:55;;;;;;;9.73;7.93;;;;;;;;;;10270682;28;20043;-82
2023/06/24 04:08:56;;;;;;;9.52;8.43;;;;;;;;;;10270013;28;20047;-82
2023/06/24 04:13:56;;;;;;;8.95;7.90;;;;;;;;;;10279456;28;20058;-82
2023/06/24 04:18:58;;;;;;;10.27;9.02;;;;;;;;;;10287695;28;20046;-84
2023/06/24 04:23:59;;;;;;;10.00;8.32;;;;;;;;;;10259567;28;20046;-84
2023/06/24 04:28:59;;;;;;;10.40;8.60;;;;;;;;;;10317698;28;20043;-83
2023/06/24 04:34:00;;;;;;;10.00;9.00;;;;;;;;;;10291840;28;20310;-83
2023/06/24 04:39:00;;;;;;;11.90;9.35;;;;;;;;;;10310505;28;20063;-83
2023/06/24 04:44:00;;;;;;;10.88;8.25;;;;;;;;;;10267962;28;20193;-82
2023/06/24 04:49:01;;;;;;;12.27;9.33;;;;;;;;;;10284693;28;20119;-83
2023/06/24 04:54:01;;;;;;;11.83;9.83;;;;;;;;;;10286916;28;20059;-83
2023/06/24 04:59:01;;;;;;;10.40;9.00;;;;;;;;;;10312277;28;20368;-88
2023/06/24 05:04:02;;;;;;;12.10;9.93;;;;;;;;;;10331459;28;20354;-84
2023/06/24 05:09:02;;;;;;;12.23;10.27;;;;;;;;;;10296724;28;20823;-80
2023/06/24 05:14:03;;;;;;;11.70;9.83;;;;;;;;;;10287888;28;20310;-81
2023/06/24 05:19:03;;;;;;;11.85;9.48;;;;;;;;;;10301379;28;20121;-79
2023/06/24 05:24:04;;;;;;;14.37;11.50;;;;;;;;;;10299636;28;20054;-78
2023/06/24 05:29:04;;;;;;;11.85;10.45;;;;;;;;;;10289593;28;20038;-78
2023/06/24 05:34:05;;;;;;;11.23;9.33;;;;;;;;;;10285437;28;20061;-74
2023/06/24 05:39:07;;;;;;;10.30;8.63;;;;;;;;;;10256874;28;20741;-75
2023/06/24 05:44:09;;;;;;;12.05;9.30;;;;;;;;;;10272860;28;20137;-75
2023/06/24 05:49:10;;;;;;;10.47;8.03;;;;;;;;;;10277969;28;20517;-76
2023/06/24 05:54:10;;;;;;;12.00;10.35;;;;;;;;;;10282138;28;20059;-76
2023/06/24 05:59:10;;;;;;;9.80;8.80;;;;;;;;;;10277974;28;20051;-76
2023/06/24 06:04:11;;;;;;;9.80;8.70;;;;;;;;;;10275482;28;21049;-76
2023/06/24 06:09:11;;;;;;;9.60;8.37;;;;;;;;;;10269714;28;20539;-76
2023/06/24 06:14:11;;;;;;;12.70;9.40;;;;;;;;;;10286627;28;20143;-75
2023/06/24 06:19:12;;;;;;;11.00;8.97;;;;;;;;;;10279113;28;20094;-78
2023/06/24 06:24:12;;;;;;;12.00;8.27;;;;;;;;;;10284772;28;20097;-81
2023/06/24 06:29:12;;;;;;;11.80;8.80;;;;;;;;;;10279482;28;20298;-81
2023/06/24 06:34:13;;;;;;;10.13;8.17;;;;;;;;;;10278697;28;20114;-80
2023/06/24 06:39:13;;;;;;;8.03;6.93;;;;;;;;;;10282307;28;20982;-80
2023/06/24 06:44:14;;;;;;;9.73;6.72;;;;;;;;;;10279790;28;20343;-82
2023/06/24 06:49:14;;;;;;;7.10;5.93;;;;;;;;;;10281460;28;20047;-83
2023/06/24 06:54:14;;;;;;;7.47;5.50;;;;;;;;;;10285797;28;20055;-81
2023/06/24 06:59:15;;;;;;;8.43;6.03;;;;;;;;;;10272466;28;20053;-81
2023/06/24 07:04:15;;;;;;;8.82;6.25;;;;;;;;;;10267522;28;20057;-80
2023/06/24 07:09:16;;;;;;;7.13;6.43;;;;;;;;;;10293831;28;20251;-84
2023/06/24 07:14:16;;;;;;;7.20;5.97;;;;;;;;;;10287670;28;20259;-83
2023/06/24 07:19:18;;;;;;;8.85;6.35;;;;;;;;;;10310571;28;20046;-81
2023/06/24 07:24:18;;;;;;;10.37;6.80;;;;;;;;;;10261785;28;20062;-75
2023/06/24 07:29:18;;;;;;;8.00;7.10;;;;;;;;;;10271263;28;20050;-78
2023/06/24 07:34:19;;;;;;;8.43;6.70;;;;;;;;;;10279676;28;20066;-78
2023/06/24 07:39:19;;;;;;;7.17;6.03;;;;;;;;;;10264374;28;20074;-81
2023/06/24 07:44:19;;;;;;;6.50;5.80;;;;;;;;;;10276488;28;20779;-77
2023/06/24 07:49:20;;;;;;;6.70;5.87;;;;;;;;;;10272096;28;20171;-76
2023/06/24 07:54:20;;;;;;;6.57;5.47;;;;;;;;;;10274254;28;20047;-78
2023/06/24 07:59:20;;;;;;;8.03;6.00;;;;;;;;;;10287389;28;20944;-80
2023/06/24 08:04:21;;;;;;;6.27;5.20;;;;;;;;;;10284235;28;20143;-78
2023/06/24 08:09:21;;;;;;;7.60;6.00;;;;;;;;;;10286284;28;20051;-79
2023/06/24 08:14:21;;;;;;;7.20;6.40;;;;;;;;;;10279962;28;20326;-78
2023/06/24 08:19:22;;;;;;;11.17;6.57;;;;;;;;;;10278040;28;20127;-77
2023/06/24 08:24:22;;;;;;;6.63;5.67;;;;;;;;;;10284879;28;20042;-78
2023/06/24 08:29:22;;;;;;;6.93;5.53;;;;;;;;;;10286739;28;20142;-79
2023/06/24 08:34:23;;;;;;;7.07;5.80;;;;;;;;;;10287038;28;20309;-76
2023/06/24 08:39:23;;;;;;;6.50;5.73;;;;;;;;;;10283080;28;20043;-76
2023/06/24 08:44:23;;;;;;;6.97;6.03;;;;;;;;;;10282329;28;20073;-76
2023/06/24 08:49:24;;;;;;;6.30;5.60;;;;;;;;;;10275632;28;20749;-77
2023/06/24 08:54:25;;;;;;;5.67;5.07;;;;;;;;;;10293247;28;20395;-77
2023/06/24 08:59:25;;;;;;;5.63;4.75;;;;;;;;;;10286114;28;20088;-77
2023/06/24 09:04:26;;;;;;;5.45;4.90;;;;;;;;;;10286990;28;20054;-76
2023/06/24 09:09:28;;;;;;;7.60;5.40;;;;;;;;;;10299419;28;20368;-76
2023/06/24 09:14:31;;;;;;;4.32;3.92;;;;;;;;;;10276042;28;20310;-75
2023/06/24 09:19:36;;;;;;;4.82;4.10;;;;;;;;;;10282624;28;20146;-76
2023/06/24 09:24:37;;;;;;;5.18;4.22;;;;;;;;;;10282738;28;20053;-74
2023/06/24 09:29:37;;;;;;;5.07;4.22;;;;;;;;;;10269970;28;20054;-76
2023/06/24 09:34:37;;;;;;;5.73;4.50;;;;;;;;;;10246363;28;21277;-77
2023/06/24 09:39:41;;;;;;;5.18;4.28;;;;;;;;;;10260228;28;20578;-75
2023/06/24 09:44:42;;;;;;;4.15;3.72;;;;;;;;;;10285083;28;20112;-78
2023/06/24 09:49:42;;;;;;;4.20;3.60;;;;;;;;;;10283144;28;20105;-76
2023/06/24 09:54:43;;;;;;;4.67;3.80;;;;;;;;;;10278278;28;20082;-77
2023/06/24 09:59:46;;;;;;;4.70;4.20;;;;;;;;;;10276509;28;20049;-77
2023/06/24 10:04:48;;;;;;;5.47;4.25;;;;;;;;;;10262352;28;20738;-78
2023/06/24 10:09:49;;;;;;;4.70;4.00;;;;;;;;;;10283226;28;20050;-77
2023/06/24 10:14:49;;;;;;;3.80;3.45;;;;;;;;;;10276260;28;20121;-76
2023/06/24 10:19:51;;;;;;;4.00;3.60;;;;;;;;;;10282271;28;20050;-73
2023/06/24 10:24:52;;;;;;;5.60;4.50;;;;;;;;;;10280426;28;20101;-74
2023/06/24 10:29:56;;;;;;;4.80;3.83;;;;;;;;;;10258656;28;20061;-76
2023/06/24 10:34:56;;;;;;;4.45;3.67;;;;;;;;;;10277305;28;20465;-74
2023/06/24 10:40:00;;;;;;;6.22;4.97;;;;;;;;;;10285267;28;20468;-74
2023/06/24 10:45:09;;;;;;;4.78;3.88;;;;;;;;;;10269390;28;20035;-72
2023/06/24 10:50:11;;;;;;;6.30;3.92;;;;;;;;;;10283700;28;20066;-75
2023/06/24 10:55:17;;;;;;;6.63;5.20;;;;;;;;;;10283003;28;20054;-75
2023/06/24 11:00:19;;;;;;;4.43;4.00;;;;;;;;;;10253032;28;20101;-80
2023/06/24 11:05:20;;;;;;;4.25;3.85;;;;;;;;;;10280512;28;20125;-76
2023/06/24 11:10:21;;;;;;;4.33;3.77;;;;;;;;;;10282646;28;20047;-76
2023/06/24 11:15:22;;;;;;;6.30;3.85;;;;;;;;;;10279159;28;20108;-76
2023/06/24 11:20:23;;;;;;;4.68;3.45;;;;;;;;;;10283781;28;20046;-78
2023/06/24 11:25:25;;;;;;;5.38;3.15;;;;;;;;;;10282308;28;20058;-81
2023/06/24 11:30:25;;;;;;;3.87;3.10;;;;;;;;;;10277414;28;20612;-77
2023/06/24 11:35:25;;;;;;;5.07;3.08;;;;;;;;;;10284640;28;20380;-77
2023/06/24 11:40:26;;;;;;;3.83;3.00;;;;;;;;;;10265669;28;20039;-76
2023/06/24 11:45:26;;;;;;;4.17;3.17;;;;;;;;;;10278682;28;20046;-75
2023/06/24 11:50:27;;;;;;;4.37;2.93;;;;;;;;;;10278103;28;20467;-76
2023/06/24 11:55:31;;;;;;;4.87;3.50;;;;;;;;;;10263933;28;20042;-75
2023/06/24 12:00:33;;;;;;;3.40;3.10;;;;;;;;;;10276717;28;20053;-78
2023/06/24 12:05:34;;;;;;;3.40;3.10;;;;;;;;;;10282774;28;20057;-76
2023/06/24 12:10:35;;;;;;;3.17;2.70;;;;;;;;;;10280030;28;20137;-77
2023/06/24 12:15:36;;;;;;;3.83;2.70;;;;;;;;;;10281124;28;20387;-79
2023/06/24 12:20:36;;;;;;;3.20;2.90;;;;;;;;;;10263157;28;20507;-78
2023/06/24 12:25:37;;;;;;;3.20;2.90;;;;;;;;;;10265427;28;20788;-76
2023/06/24 12:30:37;;;;;;;3.33;3.03;;;;;;;;;;10278565;28;20046;-74
2023/06/24 12:35:37;;;;;;;5.03;3.00;;;;;;;;;;10271206;28;20055;-77
2023/06/24 12:40:38;;;;;;;3.43;2.87;;;;;;;;;;10283258;28;20456;-77
2023/06/24 12:45:38;;;;;;;3.87;3.33;;;;;;;;;;10279736;28;20066;-76
2023/06/24 12:50:39;;;;;;;3.63;3.33;;;;;;;;;;10275797;28;20051;-78
2023/06/24 12:55:39;;;;;;;3.70;3.37;;;;;;;;;;10273031;28;20042;-76
2023/06/24 13:00:40;;;;;;;4.17;3.23;;;;;;;;;;10289226;28;20070;-76
2023/06/24 13:05:40;;;;;;;3.97;3.57;;;;;;;;;;10255608;28;20628;-77
2023/06/24 13:10:41;;;;;;;17.03;12.80;;;;;;;;;;10286490;28;20046;-78
2023/06/24 13:15:41;;;;;;;4.00;3.67;;;;;;;;;;10274552;28;20055;-78
2023/06/24 13:20:43;;;;;;;3.60;3.30;;;;;;;;;;10265675;28;20047;-80
2023/06/24 13:25:44;;;;;;;3.45;3.15;;;;;;;;;;10282317;28;21315;-77
2023/06/24 13:30:45;;;;;;;3.43;3.13;;;;;;;;;;10285782;28;20128;-77
2023/06/24 13:35:45;;;;;;;3.60;3.30;;;;;;;;;;10289033;28;20074;-79
2023/06/24 13:40:45;;;;;;;3.80;3.40;;;;;;;;;;10280750;28;20046;-77
2023/06/24 13:45:46;;;;;;;3.20;2.90;;;;;;;;;;10281068;28;20046;-79
2023/06/24 13:50:46;;;;;;;3.27;2.97;;;;;;;;;;10286990;28;20410;-79
2023/06/24 13:55:47;;;;;;;4.45;3.38;;;;;;;;;;10285331;28;20046;-79
2023/06/24 14:00:48;;;;;;;4.33;3.40;;;;;;;;;;10266727;28;20043;-79
2023/06/24 14:05:48;;;;;;;3.70;2.80;;;;;;;;;;10280801;28;20169;-78
2023/06/24 14:10:49;;;;;;;4.90;3.43;;;;;;;;;;10281640;28;20125;-78
2023/06/24 14:15:49;;;;;;;3.47;3.17;;;;;;;;;;10285300;28;20446;-77
2023/06/24 14:20:50;;;;;;;4.33;3.60;;;;;;;;;;10271443;28;20050;-79
2023/06/24 14:25:50;;;;;;;3.47;3.00;;;;;;;;;;10281947;28;20038;-77
2023/06/24 14:30:50;;;;;;;3.40;2.83;;;;;;;;;;10277342;28;20079;-76
2023/06/24 14:35:51;;;;;;;4.33;2.97;;;;;;;;;;10262879;28;20118;-76
2023/06/24 14:40:51;;;;;;;3.40;2.97;;;;;;;;;;10281844;28;20042;-76
2023/06/24 14:45:52;;;;;;;3.30;3.00;;;;;;;;;;10284296;28;20070;-76
2023/06/24 14:50:52;;;;;;;3.03;2.73;;;;;;;;;;10281250;28;20049;-76
2023/06/24 14:55:52;;;;;;;3.17;2.63;;;;;;;;;;10276719;28;20074;-76
2023/06/24 15:00:53;;;;;;;4.13;2.67;;;;;;;;;;10289842;28;20037;-79
2023/06/24 15:05:54;;;;;;;2.83;2.53;;;;;;;;;;10284407;28;20079;-77
2023/06/24 15:10:54;;;;;;;4.80;3.37;;;;;;;;;;10279321;28;20054;-76
2023/06/24 15:15:56;;;;;;;3.30;2.87;;;;;;;;;;10281983;28;20048;-76
2023/06/24 15:20:57;;;;;;;3.53;2.70;;;;;;;;;;10277905;28;20077;-75
2023/06/24 15:25:57;;;;;;;4.30;3.20;;;;;;;;;;10269681;28;20053;-76
2023/06/24 15:30:57;;;;;;;4.13;3.03;;;;;;;;;;10262308;28;20063;-78
2023/06/24 15:35:59;;;;;;;3.50;2.90;;;;;;;;;;10264091;28;20043;-79
2023/06/24 15:40:59;;;;;;;3.53;3.10;;;;;;;;;;10276431;28;20047;-77
2023/06/24 15:46:00;;;;;;;3.20;2.80;;;;;;;;;;10277650;28;20049;-78
2023/06/24 15:51:00;;;;;;;4.17;3.07;;;;;;;;;;10284459;28;20088;-77
2023/06/24 15:56:00;;;;;;;3.63;3.20;;;;;;;;;;10262488;28;20115;-76
2023/06/24 16:01:01;;;;;;;6.27;3.20;;;;;;;;;;10277663;28;20062;-78
2023/06/24 16:06:02;;;;;;;3.47;3.17;;;;;;;;;;10268300;28;20050;-76
2023/06/24 16:11:03;;;;;;;6.50;3.40;;;;;;;;;;10279615;28;20313;-77
2023/06/24 16:16:03;;;;;;;3.40;3.05;;;;;;;;;;10284095;28;20043;-77
2023/06/24 16:21:04;;;;;;;3.77;2.97;;;;;;;;;;10281404;28;20043;-75
2023/06/24 16:26:04;;;;;;;5.43;3.97;;;;;;;;;;10283098;28;20062;-75
2023/06/24 16:31:05;;;;;;;5.47;3.67;;;;;;;;;;10295463;28;20055;-77
2023/06/24 16:36:06;;;;;;;4.27;3.03;;;;;;;;;;10285744;28;20049;-76
2023/06/24 16:41:07;;;;;;;3.63;3.30;;;;;;;;;;10290436;28;20075;-75
2023/06/24 16:46:07;;;;;;;4.07;3.43;;;;;;;;;;10280381;28;20497;-75
2023/06/24 16:51:07;;;;;;;3.63;3.33;;;;;;;;;;10276285;28;20371;-76
2023/06/24 16:56:08;;;;;;;6.27;4.17;;;;;;;;;;10285889;28;20458;-76
2023/06/24 17:01:08;;;;;;;4.20;3.80;;;;;;;;;;10278267;28;20074;-75
2023/06/24 17:06:08;;;;;;;5.75;3.80;;;;;;;;;;10280030;28;20042;-76
2023/06/24 17:11:09;;;;;;;4.87;4.30;;;;;;;;;;10271418;28;20105;-76
2023/06/24 17:16:09;;;;;;;4.90;3.97;;;;;;;;;;10284050;28;20050;-74
2023/06/24 17:21:09;;;;;;;4.50;3.83;;;;;;;;;;10279658;28;20156;-74
2023/06/24 17:26:10;;;;;;;4.00;3.60;;;;;;;;;;10276960;28;20137;-76
2023/06/24 17:31:10;;;;;;;4.37;3.93;;;;;;;;;;10277513;28;20432;-74
2023/06/24 17:36:11;;;;;;;4.80;3.60;;;;;;;;;;10276768;28;20510;-76
2023/06/24 17:41:11;;;;;;;7.33;4.30;;;;;;;;;;10283882;28;20050;-73
2023/06/24 17:46:14;;;;;;;4.28;3.83;;;;;;;;;;10285430;28;20050;-77
2023/06/24 17:51:15;;;;;;;4.30;3.80;;;;;;;;;;10280900;28;20042;-75
2023/06/24 17:56:15;;;;;;;4.47;4.07;;;;;;;;;;10287524;28;20061;-77
2023/06/24 18:01:17;;;;;;;4.65;3.80;;;;;;;;;;10290756;28;20482;-77
2023/06/24 18:06:17;;;;;;;4.30;3.90;;;;;;;;;;10265799;28;20039;-76
2023/06/24 18:11:18;;;;;;;5.07;4.13;;;;;;;;;;10270146;28;20073;-78
2023/06/24 18:16:18;;;;;;;4.70;4.30;;;;;;;;;;10284533;28;20038;-77
2023/06/24 18:21:19;;;;;;;5.20;4.70;;;;;;;;;;10283619;28;20570;-75
2023/06/24 18:26:22;;;;;;;4.80;3.67;;;;;;;;;;10267475;28;20070;-78
2023/06/24 18:31:23;;;;;;;4.70;4.28;;;;;;;;;;10273563;28;20659;-77
2023/06/24 18:36:23;;;;;;;4.90;3.80;;;;;;;;;;10285871;28;20096;-75
2023/06/24 18:41:23;;;;;;;4.88;4.28;;;;;;;;;;10284631;28;20068;-77
2023/06/24 18:46:24;;;;;;;4.43;4.03;;;;;;;;;;10289025;28;21261;-75
2023/06/24 18:51:24;;;;;;;6.00;4.13;;;;;;;;;;10283370;28;20059;-77
2023/06/24 18:56:24;;;;;;;5.10;4.53;;;;;;;;;;10280646;28;20654;-79
2023/06/24 19:01:25;;;;;;;5.50;4.53;;;;;;;;;;10282570;28;20405;-77
2023/06/24 19:06:25;;;;;;;4.60;4.17;;;;;;;;;;10281050;28;20570;-76
2023/06/24 19:11:26;;;;;;;4.55;4.10;;;;;;;;;;10283051;28;20073;-76
2023/06/24 19:16:26;;;;;;;4.68;4.07;;;;;;;;;;10278025;28;20039;-75
2023/06/24 19:21:26;;;;;;;4.77;4.27;;;;;;;;;;10280355;28;20043;-76
2023/06/24 19:26:27;;;;;;;5.10;4.53;;;;;;;;;;10280127;28;20470;-74
2023/06/24 19:31:27;;;;;;;6.40;5.57;;;;;;;;;;10282069;28;20407;-75
2023/06/24 19:36:27;;;;;;;7.40;6.63;;;;;;;;;;10279117;28;20042;-74
2023/06/24 19:41:28;;;;;;;6.40;5.80;;;;;;;;;;10285459;28;20483;-83
2023/06/24 19:46:31;;;;;;;7.10;5.30;;;;;;;;;;10277926;28;20031;-79
2023/06/24 19:51:31;;;;;;;7.78;6.30;;;;;;;;;;10271364;28;20314;-81
2023/06/24 19:56:32;;;;;;;7.87;6.40;;;;;;;;;;10279919;28;20054;-80
2023/06/24 20:01:33;;;;;;;8.70;7.75;;;;;;;;;;10277813;28;20393;-81
2023/06/24 20:06:33;;;;;;;10.30;7.90;;;;;;;;;;10262966;28;20046;-75
2023/06/24 20:11:33;;;;;;;7.80;7.00;;;;;;;;;;10276682;28;20495;-75
2023/06/24 20:16:34;;;;;;;8.43;7.33;;;;;;;;;;10269552;28;20399;-75
2023/06/24 20:21:34;;;;;;;8.07;7.20;;;;;;;;;;10266946;28;20293;-75
2023/06/24 20:26:35;;;;;;;12.70;10.05;;;;;;;;;;10278352;28;20050;-75
2023/06/24 20:31:35;;;;;;;10.55;9.45;;;;;;;;;;10272408;28;20057;-75
2023/06/24 20:36:35;;;;;;;11.77;9.67;;;;;;;;;;10271988;28;20086;-75
2023/06/24 20:41:36;;;;;;;12.67;9.93;;;;;;;;;;10270512;28;20055;-75
2023/06/24 20:46:36;;;;;;;12.80;10.43;;;;;;;;;;10270546;28;20062;-76
2023/06/24 20:51:39;;;;;;;12.27;9.93;;;;;;;;;;10279087;28;20063;-74
2023/06/24 20:56:39;;;;;;;10.00;9.00;;;;;;;;;;10277697;28;20482;-74
2023/06/24 21:01:39;;;;;;;9.87;7.90;;;;;;;;;;10273762;28;20060;-77
2023/06/24 21:06:40;;;;;;;9.03;7.83;;;;;;;;;;10283346;28;20086;-75
2023/06/24 21:11:41;;;;;;;8.07;7.28;;;;;;;;;;10275569;28;20050;-74
2023/06/24 21:16:41;;;;;;;8.83;7.77;;;;;;;;;;10279399;28;21264;-73
2023/06/24 21:21:41;;;;;;;7.60;6.70;;;;;;;;;;10282720;28;20743;-74
2023/06/24 21:26:42;;;;;;;7.73;6.83;;;;;;;;;;10263582;28;20054;-74
2023/06/24 21:31:42;;;;;;;9.35;7.28;;;;;;;;;;10280376;28;20047;-74
2023/06/24 21:36:43;;;;;;;7.45;6.65;;;;;;;;;;10273140;28;20054;-75
2023/06/24 21:41:45;;;;;;;8.85;7.07;;;;;;;;;;10277175;28;20145;-75
2023/06/24 21:46:46;;;;;;;8.50;6.88;;;;;;;;;;10280058;28;20055;-75
2023/06/24 21:51:46;;;;;;;8.43;7.27;;;;;;;;;;10278981;28;20078;-75
2023/06/24 21:56:46;;;;;;;8.03;6.63;;;;;;;;;;10277019;28;20070;-75
2023/06/24 22:01:47;;;;;;;7.77;6.73;;;;;;;;;;10278043;28;20129;-74
2023/06/24 22:06:47;;;;;;;8.17;6.50;;;;;;;;;;10258241;28;20038;-75
2023/06/24 22:11:48;;;;;;;7.50;6.70;;;;;;;;;;10282062;28;20047;-82
2023/06/24 22:16:48;;;;;;;7.60;6.47;;;;;;;;;;10289100;28;20063;-81
2023/06/24 22:21:49;;;;;;;8.98;6.80;;;;;;;;;;10274908;28;20061;-82
2023/06/24 22:26:50;;;;;;;7.67;6.53;;;;;;;;;;10262194;28;20046;-85
2023/06/24 22:31:50;;;;;;;7.90;7.10;;;;;;;;;;10288764;28;20062;-82
2023/06/24 22:36:50;;;;;;;7.77;6.43;;;;;;;;;;10286639;28;20061;-80
2023/06/24 22:41:51;;;;;;;7.50;6.40;;;;;;;;;;10278553;28;20043;-74
2023/06/24 22:46:51;;;;;;;7.83;7.03;;;;;;;;;;10275058;28;20794;-74
2023/06/24 22:51:51;;;;;;;8.63;7.25;;;;;;;;;;10260140;28;20055;-78
2023/06/24 22:56:53;;;;;;;9.60;7.63;;;;;;;;;;10274484;28;20562;-73
2023/06/24 23:01:53;;;;;;;8.32;7.43;;;;;;;;;;10269685;28;20050;-74
2023/06/24 23:06:54;;;;;;;9.57;7.70;;;;;;;;;;10278522;28;20113;-75
2023/06/24 23:11:54;;;;;;;10.07;7.78;;;;;;;;;;10279138;28;20306;-72
2023/06/24 23:16:55;;;;;;;10.02;7.70;;;;;;;;;;10270980;28;20055;-74
2023/06/24 23:21:56;;;;;;;9.82;8.25;;;;;;;;;;10276342;28;20752;-73
2023/06/24 23:26:57;;;;;;;9.93;7.97;;;;;;;;;;10266055;28;20051;-73
2023/06/24 23:31:57;;;;;;;10.13;8.25;;;;;;;;;;10260088;28;20054;-74
2023/06/24 23:36:58;;;;;;;9.15;7.78;;;;;;;;;;10275191;28;20061;-73
2023/06/24 23:41:58;;;;;;;9.07;7.65;;;;;;;;;;10281377;28;20125;-74
2023/06/24 23:46:59;;;;;;;9.25;7.68;;;;;;;;;;10258848;28;20053;-74
2023/06/24 23:52:01;;;;;;;9.40;7.57;;;;;;;;;;10268191;28;20065;-75
2023/06/24 23:57:02;;;;;;;10.68;8.55;;;;;;;;;;10274982;28;20097;-73
